sensor_id;sensor_type;location;lat;lon;timestamp;P1;durP1;ratioP1;P2;durP2;ratioP2
68593;SDS011;55563;52.416;13.548;2023-06-10T00:01:44;4.05;;;2.20;;
68593;SDS011;55563;52.416;13.548;2023-06-10T00:03:47;4.88;;;2.67;;
68593;SDS011;55563;52.416;13.548;2023-06-10T00:05:48;3.97;;;2.35;;
68593;SDS011;55563;52.416;13.548;2023-06-10T00:09:50;3.90;;;2.15;;
68593;SDS011;55563;52.416;13.548;2023-06-10T00:11:51;4.30;;;2.50;;
68593;SDS011;55563;52.416;13.548;2023-06-10T00:13:52;4.28;;;2.50;;
68593;SDS011;55563;52.416;13.548;2023-06-10T00:15:52;3.92;;;2.10;;
68593;SDS011;55563;52.416;13.548;2023-06-10T00:17:53;3.80;;;2.15;;
68593;SDS011;55563;52.416;13.548;2023-06-10T00:19:55;3.67;;;2.33;;
68593;SDS011;55563;52.416;13.548;2023-06-10T00:21:56;3.42;;;2.45;;
68593;SDS011;55563;52.416;13.548;2023-06-10T00:23:57;3.53;;;2.20;;
68593;SDS011;55563;52.416;13.548;2023-06-10T00:26:03;5.18;;;2.65;;
68593;SDS011;55563;52.416;13.548;2023-06-10T00:28:05;5.82;;;2.22;;
68593;SDS011;55563;52.416;13.548;2023-06-10T00:30:05;4.95;;;2.28;;
68593;SDS011;55563;52.416;13.548;2023-06-10T00:32:07;3.15;;;2.30;;
68593;SDS011;55563;52.416;13.548;2023-06-10T00:34:09;4.38;;;2.38;;
68593;SDS011;55563;52.416;13.548;2023-06-10T00:36:10;4.72;;;2.30;;
68593;SDS011;55563;52.416;13.548;2023-06-10T00:38:10;4.97;;;2.83;;
68593;SDS011;55563;52.416;13.548;2023-06-10T00:40:13;5.60;;;2.63;;
68593;SDS011;55563;52.416;13.548;2023-06-10T00:42:14;6.63;;;2.72;;
68593;SDS011;55563;52.416;13.548;2023-06-10T00:44:15;3.67;;;2.25;;
68593;SDS011;55563;52.416;13.548;2023-06-10T00:46:16;6.72;;;2.55;;
68593;SDS011;55563;52.416;13.548;2023-06-10T00:48:18;5.38;;;2.70;;
68593;SDS011;55563;52.416;13.548;2023-06-10T00:50:19;5.30;;;2.83;;
68593;SDS011;55563;52.416;13.548;2023-06-10T00:52:20;3.33;;;2.17;;
68593;SDS011;55563;52.416;13.548;2023-06-10T00:54:22;4.18;;;2.15;;
68593;SDS011;55563;52.416;13.548;2023-06-10T00:56:23;3.40;;;2.40;;
68593;SDS011;55563;52.416;13.548;2023-06-10T00:58:24;5.40;;;2.60;;
68593;SDS011;55563;52.416;13.548;2023-06-10T01:00:25;4.05;;;2.33;;
68593;SDS011;55563;52.416;13.548;2023-06-10T01:02:27;5.57;;;2.30;;
68593;SDS011;55563;52.416;13.548;2023-06-10T01:04:28;5.90;;;2.38;;
68593;SDS011;55563;52.416;13.548;2023-06-10T01:08:46;4.78;;;2.38;;
68593;SDS011;55563;52.416;13.548;2023-06-10T01:11:12;5.32;;;2.40;;
68593;SDS011;55563;52.416;13.548;2023-06-10T01:13:17;5.15;;;2.50;;
68593;SDS011;55563;52.416;13.548;2023-06-10T01:15:20;4.22;;;2.30;;
68593;SDS011;55563;52.416;13.548;2023-06-10T01:17:22;4.20;;;2.33;;
68593;SDS011;55563;52.416;13.548;2023-06-10T01:19:22;4.47;;;2.28;;
68593;SDS011;55563;52.416;13.548;2023-06-10T01:21:25;4.45;;;2.42;;
68593;SDS011;55563;52.416;13.548;2023-06-10T01:23:26;5.20;;;2.50;;
68593;SDS011;55563;52.416;13.548;2023-06-10T01:25:27;5.65;;;2.50;;
68593;SDS011;55563;52.416;13.548;2023-06-10T01:27:30;3.67;;;2.15;;
68593;SDS011;55563;52.416;13.548;2023-06-10T01:29:41;3.90;;;2.25;;
68593;SDS011;55563;52.416;13.548;2023-06-10T01:31:48;5.07;;;2.70;;
68593;SDS011;55563;52.416;13.548;2023-06-10T01:33:56;3.92;;;2.40;;
68593;SDS011;55563;52.416;13.548;2023-06-10T01:35:58;5.07;;;2.88;;
68593;SDS011;55563;52.416;13.548;2023-06-10T01:37:59;4.35;;;2.15;;
68593;SDS011;55563;52.416;13.548;2023-06-10T01:40:02;4.75;;;2.50;;
68593;SDS011;55563;52.416;13.548;2023-06-10T01:42:06;5.13;;;2.40;;
68593;SDS011;55563;52.416;13.548;2023-06-10T01:44:10;3.20;;;2.42;;
68593;SDS011;55563;52.416;13.548;2023-06-10T01:46:14;5.15;;;2.40;;
68593;SDS011;55563;52.416;13.548;2023-06-10T01:48:16;3.95;;;2.13;;
68593;SDS011;55563;52.416;13.548;2023-06-10T01:50:17;5.35;;;2.15;;
68593;SDS011;55563;52.416;13.548;2023-06-10T01:52:17;4.43;;;2.53;;
68593;SDS011;55563;52.416;13.548;2023-06-10T01:54:18;5.45;;;2.38;;
68593;SDS011;55563;52.416;13.548;2023-06-10T01:56:20;4.03;;;2.40;;
68593;SDS011;55563;52.416;13.548;2023-06-10T01:58:21;6.03;;;3.13;;
68593;SDS011;55563;52.416;13.548;2023-06-10T02:00:22;6.03;;;2.75;;
68593;SDS011;55563;52.416;13.548;2023-06-10T02:02:22;5.28;;;2.58;;
68593;SDS011;55563;52.416;13.548;2023-06-10T02:04:25;6.38;;;2.60;;
68593;SDS011;55563;52.416;13.548;2023-06-10T02:06:26;5.22;;;2.58;;
68593;SDS011;55563;52.416;13.548;2023-06-10T02:08:27;4.72;;;2.30;;
68593;SDS011;55563;52.416;13.548;2023-06-10T02:10:28;3.92;;;2.65;;
68593;SDS011;55563;52.416;13.548;2023-06-10T02:12:31;4.25;;;2.30;;
68593;SDS011;55563;52.416;13.548;2023-06-10T02:14:32;4.10;;;2.40;;
68593;SDS011;55563;52.416;13.548;2023-06-10T02:16:33;4.30;;;2.35;;
68593;SDS011;55563;52.416;13.548;2023-06-10T02:18:34;3.75;;;2.30;;
68593;SDS011;55563;52.416;13.548;2023-06-10T02:20:34;4.07;;;2.50;;
68593;SDS011;55563;52.416;13.548;2023-06-10T02:22:37;4.43;;;2.10;;
68593;SDS011;55563;52.416;13.548;2023-06-10T02:24:38;4.03;;;2.33;;
68593;SDS011;55563;52.416;13.548;2023-06-10T02:26:39;3.90;;;2.70;;
68593;SDS011;55563;52.416;13.548;2023-06-10T02:28:43;5.57;;;2.38;;
68593;SDS011;55563;52.416;13.548;2023-06-10T02:30:49;4.97;;;2.33;;
68593;SDS011;55563;52.416;13.548;2023-06-10T02:32:50;5.22;;;2.60;;
68593;SDS011;55563;52.416;13.548;2023-06-10T02:34:54;5.78;;;2.30;;
68593;SDS011;55563;52.416;13.548;2023-06-10T02:36:57;4.88;;;2.40;;
68593;SDS011;55563;52.416;13.548;2023-06-10T02:38:58;5.13;;;2.47;;
68593;SDS011;55563;52.416;13.548;2023-06-10T02:40:59;4.75;;;2.40;;
68593;SDS011;55563;52.416;13.548;2023-06-10T02:43:00;8.57;;;2.60;;
68593;SDS011;55563;52.416;13.548;2023-06-10T02:45:01;5.32;;;2.63;;
68593;SDS011;55563;52.416;13.548;2023-06-10T02:47:09;3.10;;;2.20;;
68593;SDS011;55563;52.416;13.548;2023-06-10T02:49:11;4.13;;;2.08;;
68593;SDS011;55563;52.416;13.548;2023-06-10T02:51:13;4.47;;;2.72;;
68593;SDS011;55563;52.416;13.548;2023-06-10T02:53:18;4.90;;;2.72;;
68593;SDS011;55563;52.416;13.548;2023-06-10T02:55:23;5.13;;;2.60;;
68593;SDS011;55563;52.416;13.548;2023-06-10T02:57:29;4.78;;;2.40;;
68593;SDS011;55563;52.416;13.548;2023-06-10T02:59:30;4.63;;;2.53;;
68593;SDS011;55563;52.416;13.548;2023-06-10T03:01:31;4.88;;;2.72;;
68593;SDS011;55563;52.416;13.548;2023-06-10T03:03:38;6.25;;;2.70;;
68593;SDS011;55563;52.416;13.548;2023-06-10T03:05:44;6.18;;;2.70;;
68593;SDS011;55563;52.416;13.548;2023-06-10T03:07:45;4.72;;;2.60;;
68593;SDS011;55563;52.416;13.548;2023-06-10T03:09:48;5.05;;;2.40;;
68593;SDS011;55563;52.416;13.548;2023-06-10T03:11:50;8.23;;;3.83;;
68593;SDS011;55563;52.416;13.548;2023-06-10T03:13:51;4.72;;;3.10;;
68593;SDS011;55563;52.416;13.548;2023-06-10T03:15:53;4.82;;;2.65;;
68593;SDS011;55563;52.416;13.548;2023-06-10T03:17:56;6.10;;;2.55;;
68593;SDS011;55563;52.416;13.548;2023-06-10T03:22:14;4.45;;;2.67;;
68593;SDS011;55563;52.416;13.548;2023-06-10T03:24:23;4.72;;;2.60;;
68593;SDS011;55563;52.416;13.548;2023-06-10T03:26:25;5.43;;;2.80;;
68593;SDS011;55563;52.416;13.548;2023-06-10T03:28:30;5.45;;;2.60;;
68593;SDS011;55563;52.416;13.548;2023-06-10T03:30:31;4.63;;;2.60;;
68593;SDS011;55563;52.416;13.548;2023-06-10T03:32:32;4.38;;;2.55;;
68593;SDS011;55563;52.416;13.548;2023-06-10T03:34:34;4.82;;;2.60;;
68593;SDS011;55563;52.416;13.548;2023-06-10T03:36:36;4.22;;;2.70;;
68593;SDS011;55563;52.416;13.548;2023-06-10T03:38:38;6.97;;;2.80;;
68593;SDS011;55563;52.416;13.548;2023-06-10T03:40:40;5.15;;;2.88;;
68593;SDS011;55563;52.416;13.548;2023-06-10T03:42:41;4.47;;;2.45;;
68593;SDS011;55563;52.416;13.548;2023-06-10T03:44:43;4.03;;;2.22;;
68593;SDS011;55563;52.416;13.548;2023-06-10T03:46:44;5.03;;;2.55;;
68593;SDS011;55563;52.416;13.548;2023-06-10T03:48:46;4.43;;;2.83;;
68593;SDS011;55563;52.416;13.548;2023-06-10T03:50:48;3.60;;;2.42;;
68593;SDS011;55563;52.416;13.548;2023-06-10T03:52:51;4.93;;;2.83;;
68593;SDS011;55563;52.416;13.548;2023-06-10T03:54:55;3.40;;;2.40;;
68593;SDS011;55563;52.416;13.548;2023-06-10T03:56:55;5.30;;;2.60;;
68593;SDS011;55563;52.416;13.548;2023-06-10T03:58:57;4.53;;;2.90;;
68593;SDS011;55563;52.416;13.548;2023-06-10T04:00:57;5.00;;;2.83;;
68593;SDS011;55563;52.416;13.548;2023-06-10T04:03:06;3.60;;;2.45;;
68593;SDS011;55563;52.416;13.548;2023-06-10T04:05:13;5.20;;;2.78;;
68593;SDS011;55563;52.416;13.548;2023-06-10T04:07:14;4.40;;;2.80;;
68593;SDS011;55563;52.416;13.548;2023-06-10T04:09:15;7.55;;;2.67;;
68593;SDS011;55563;52.416;13.548;2023-06-10T04:11:17;4.65;;;2.78;;
68593;SDS011;55563;52.416;13.548;2023-06-10T04:13:19;7.20;;;3.22;;
68593;SDS011;55563;52.416;13.548;2023-06-10T04:15:27;3.10;;;2.40;;
68593;SDS011;55563;52.416;13.548;2023-06-10T04:17:28;4.30;;;3.10;;
68593;SDS011;55563;52.416;13.548;2023-06-10T04:19:28;4.28;;;2.85;;
68593;SDS011;55563;52.416;13.548;2023-06-10T04:21:32;5.00;;;2.63;;
68593;SDS011;55563;52.416;13.548;2023-06-10T04:23:33;5.60;;;3.13;;
68593;SDS011;55563;52.416;13.548;2023-06-10T04:25:34;4.53;;;3.00;;
68593;SDS011;55563;52.416;13.548;2023-06-10T04:27:35;4.50;;;2.63;;
68593;SDS011;55563;52.416;13.548;2023-06-10T04:29:36;5.47;;;3.08;;
68593;SDS011;55563;52.416;13.548;2023-06-10T04:31:37;4.88;;;3.05;;
68593;SDS011;55563;52.416;13.548;2023-06-10T04:33:38;5.95;;;3.00;;
68593;SDS011;55563;52.416;13.548;2023-06-10T04:35:40;4.88;;;2.92;;
68593;SDS011;55563;52.416;13.548;2023-06-10T04:37:44;5.43;;;2.85;;
68593;SDS011;55563;52.416;13.548;2023-06-10T04:39:45;4.57;;;2.90;;
68593;SDS011;55563;52.416;13.548;2023-06-10T04:41:46;5.40;;;2.92;;
68593;SDS011;55563;52.416;13.548;2023-06-10T04:43:47;8.38;;;3.50;;
68593;SDS011;55563;52.416;13.548;2023-06-10T04:45:48;4.55;;;3.00;;
68593;SDS011;55563;52.416;13.548;2023-06-10T04:47:49;5.50;;;2.60;;
68593;SDS011;55563;52.416;13.548;2023-06-10T04:49:50;5.60;;;2.95;;
68593;SDS011;55563;52.416;13.548;2023-06-10T04:51:51;4.13;;;2.83;;
68593;SDS011;55563;52.416;13.548;2023-06-10T04:53:53;6.28;;;3.17;;
68593;SDS011;55563;52.416;13.548;2023-06-10T04:55:54;6.25;;;3.35;;
68593;SDS011;55563;52.416;13.548;2023-06-10T04:57:55;4.88;;;2.75;;
68593;SDS011;55563;52.416;13.548;2023-06-10T04:59:55;5.97;;;3.17;;
68593;SDS011;55563;52.416;13.548;2023-06-10T05:01:56;6.72;;;3.17;;
68593;SDS011;55563;52.416;13.548;2023-06-10T05:03:57;4.15;;;3.00;;
68593;SDS011;55563;52.416;13.548;2023-06-10T05:05:58;6.50;;;3.70;;
68593;SDS011;55563;52.416;13.548;2023-06-10T05:07:58;5.75;;;3.35;;
68593;SDS011;55563;52.416;13.548;2023-06-10T05:09:59;4.95;;;3.15;;
68593;SDS011;55563;52.416;13.548;2023-06-10T05:12:00;5.35;;;3.28;;
68593;SDS011;55563;52.416;13.548;2023-06-10T05:14:01;4.40;;;2.92;;
68593;SDS011;55563;52.416;13.548;2023-06-10T05:16:02;4.80;;;3.30;;
68593;SDS011;55563;52.416;13.548;2023-06-10T05:18:04;4.22;;;3.03;;
68593;SDS011;55563;52.416;13.548;2023-06-10T05:20:04;4.22;;;2.75;;
68593;SDS011;55563;52.416;13.548;2023-06-10T05:22:06;4.63;;;3.03;;
68593;SDS011;55563;52.416;13.548;2023-06-10T05:24:07;4.32;;;3.05;;
68593;SDS011;55563;52.416;13.548;2023-06-10T05:26:08;5.80;;;2.42;;
68593;SDS011;55563;52.416;13.548;2023-06-10T05:28:09;4.75;;;2.90;;
68593;SDS011;55563;52.416;13.548;2023-06-10T05:30:10;6.43;;;3.22;;
68593;SDS011;55563;52.416;13.548;2023-06-10T05:34:12;6.10;;;3.35;;
68593;SDS011;55563;52.416;13.548;2023-06-10T05:36:12;5.13;;;3.20;;
68593;SDS011;55563;52.416;13.548;2023-06-10T05:38:13;4.65;;;3.30;;
68593;SDS011;55563;52.416;13.548;2023-06-10T05:40:14;4.47;;;2.92;;
68593;SDS011;55563;52.416;13.548;2023-06-10T05:42:14;4.38;;;2.85;;
68593;SDS011;55563;52.416;13.548;2023-06-10T05:44:15;5.65;;;3.22;;
68593;SDS011;55563;52.416;13.548;2023-06-10T05:46:16;5.75;;;3.20;;
68593;SDS011;55563;52.416;13.548;2023-06-10T05:48:16;6.22;;;3.45;;
68593;SDS011;55563;52.416;13.548;2023-06-10T05:50:17;3.92;;;3.20;;
68593;SDS011;55563;52.416;13.548;2023-06-10T05:52:18;4.95;;;3.60;;
68593;SDS011;55563;52.416;13.548;2023-06-10T05:54:19;3.97;;;3.03;;
68593;SDS011;55563;52.416;13.548;2023-06-10T05:58:22;4.68;;;2.95;;
68593;SDS011;55563;52.416;13.548;2023-06-10T06:00:24;5.22;;;3.70;;
68593;SDS011;55563;52.416;13.548;2023-06-10T06:02:24;5.57;;;3.72;;
68593;SDS011;55563;52.416;13.548;2023-06-10T06:06:26;4.78;;;3.38;;
68593;SDS011;55563;52.416;13.548;2023-06-10T06:08:26;3.75;;;3.00;;
68593;SDS011;55563;52.416;13.548;2023-06-10T06:10:27;5.18;;;3.42;;
68593;SDS011;55563;52.416;13.548;2023-06-10T06:12:28;4.35;;;3.13;;
68593;SDS011;55563;52.416;13.548;2023-06-10T06:14:30;6.25;;;3.33;;
68593;SDS011;55563;52.416;13.548;2023-06-10T06:16:32;5.28;;;3.58;;
68593;SDS011;55563;52.416;13.548;2023-06-10T06:18:33;6.57;;;3.70;;
68593;SDS011;55563;52.416;13.548;2023-06-10T06:20:33;7.78;;;4.10;;
68593;SDS011;55563;52.416;13.548;2023-06-10T06:22:34;5.78;;;3.67;;
68593;SDS011;55563;52.416;13.548;2023-06-10T06:24:35;8.40;;;3.78;;
68593;SDS011;55563;52.416;13.548;2023-06-10T06:26:36;5.50;;;3.85;;
68593;SDS011;55563;52.416;13.548;2023-06-10T06:28:36;3.60;;;2.88;;
68593;SDS011;55563;52.416;13.548;2023-06-10T06:30:37;5.00;;;3.55;;
68593;SDS011;55563;52.416;13.548;2023-06-10T06:32:38;5.97;;;3.60;;
68593;SDS011;55563;52.416;13.548;2023-06-10T06:34:38;7.70;;;3.38;;
68593;SDS011;55563;52.416;13.548;2023-06-10T06:36:39;5.68;;;3.50;;
68593;SDS011;55563;52.416;13.548;2023-06-10T06:38:39;5.15;;;3.42;;
68593;SDS011;55563;52.416;13.548;2023-06-10T06:40:40;4.55;;;3.72;;
68593;SDS011;55563;52.416;13.548;2023-06-10T06:42:41;5.35;;;3.95;;
68593;SDS011;55563;52.416;13.548;2023-06-10T06:44:49;3.58;;;2.45;;
68593;SDS011;55563;52.416;13.548;2023-06-10T06:46:50;6.10;;;3.60;;
68593;SDS011;55563;52.416;13.548;2023-06-10T06:48:51;4.72;;;3.30;;
68593;SDS011;55563;52.416;13.548;2023-06-10T06:50:52;4.43;;;3.65;;
68593;SDS011;55563;52.416;13.548;2023-06-10T06:52:53;7.45;;;3.85;;
68593;SDS011;55563;52.416;13.548;2023-06-10T06:54:53;5.85;;;3.85;;
68593;SDS011;55563;52.416;13.548;2023-06-10T06:56:54;6.05;;;3.83;;
68593;SDS011;55563;52.416;13.548;2023-06-10T06:58:55;5.57;;;3.65;;
68593;SDS011;55563;52.416;13.548;2023-06-10T07:00:55;3.80;;;2.38;;
68593;SDS011;55563;52.416;13.548;2023-06-10T07:02:57;6.95;;;3.75;;
68593;SDS011;55563;52.416;13.548;2023-06-10T07:04:59;4.45;;;3.42;;
68593;SDS011;55563;52.416;13.548;2023-06-10T07:07:00;5.60;;;4.10;;
68593;SDS011;55563;52.416;13.548;2023-06-10T07:09:00;5.65;;;3.63;;
68593;SDS011;55563;52.416;13.548;2023-06-10T07:11:01;4.32;;;3.72;;
68593;SDS011;55563;52.416;13.548;2023-06-10T07:13:02;4.85;;;3.55;;
68593;SDS011;55563;52.416;13.548;2023-06-10T07:15:03;5.53;;;4.05;;
68593;SDS011;55563;52.416;13.548;2023-06-10T07:19:04;5.57;;;4.38;;
68593;SDS011;55563;52.416;13.548;2023-06-10T07:21:05;5.60;;;3.17;;
68593;SDS011;55563;52.416;13.548;2023-06-10T07:23:09;4.90;;;3.78;;
68593;SDS011;55563;52.416;13.548;2023-06-10T07:25:10;6.20;;;4.18;;
68593;SDS011;55563;52.416;13.548;2023-06-10T07:27:12;5.45;;;3.65;;
68593;SDS011;55563;52.416;13.548;2023-06-10T07:29:13;5.13;;;3.75;;
68593;SDS011;55563;52.416;13.548;2023-06-10T07:33:14;5.38;;;4.22;;
68593;SDS011;55563;52.416;13.548;2023-06-10T07:35:15;6.15;;;4.30;;
68593;SDS011;55563;52.416;13.548;2023-06-10T07:39:16;5.88;;;4.20;;
68593;SDS011;55563;52.416;13.548;2023-06-10T07:43:18;6.05;;;3.83;;
68593;SDS011;55563;52.416;13.548;2023-06-10T07:47:19;6.38;;;3.67;;
68593;SDS011;55563;52.416;13.548;2023-06-10T07:49:20;5.35;;;4.05;;
68593;SDS011;55563;52.416;13.548;2023-06-10T07:53:22;6.45;;;3.83;;
68593;SDS011;55563;52.416;13.548;2023-06-10T07:57:26;4.60;;;3.75;;
68593;SDS011;55563;52.416;13.548;2023-06-10T08:01:27;5.38;;;3.90;;
68593;SDS011;55563;52.416;13.548;2023-06-10T08:05:28;4.70;;;3.80;;
68593;SDS011;55563;52.416;13.548;2023-06-10T08:09:31;4.10;;;3.33;;
68593;SDS011;55563;52.416;13.548;2023-06-10T08:13:32;5.28;;;4.00;;
68593;SDS011;55563;52.416;13.548;2023-06-10T08:15:33;5.13;;;4.07;;
68593;SDS011;55563;52.416;13.548;2023-06-10T08:19:35;6.30;;;3.88;;
68593;SDS011;55563;52.416;13.548;2023-06-10T08:23:39;6.05;;;4.20;;
68593;SDS011;55563;52.416;13.548;2023-06-10T08:27:41;4.15;;;3.40;;
68593;SDS011;55563;52.416;13.548;2023-06-10T08:31:43;5.45;;;4.15;;
68593;SDS011;55563;52.416;13.548;2023-06-10T08:33:44;5.72;;;4.28;;
68593;SDS011;55563;52.416;13.548;2023-06-10T08:37:45;5.00;;;3.88;;
68593;SDS011;55563;52.416;13.548;2023-06-10T08:44:29;6.35;;;5.15;;
68593;SDS011;55563;52.416;13.548;2023-06-10T08:46:31;8.90;;;4.25;;
68593;SDS011;55563;52.416;13.548;2023-06-10T08:48:32;5.43;;;3.92;;
68593;SDS011;55563;52.416;13.548;2023-06-10T08:50:36;4.07;;;3.53;;
68593;SDS011;55563;52.416;13.548;2023-06-10T08:52:39;6.35;;;3.78;;
68593;SDS011;55563;52.416;13.548;2023-06-10T08:54:51;7.28;;;3.85;;
68593;SDS011;55563;52.416;13.548;2023-06-10T08:56:55;5.63;;;4.55;;
68593;SDS011;55563;52.416;13.548;2023-06-10T08:58:57;5.97;;;4.90;;
68593;SDS011;55563;52.416;13.548;2023-06-10T09:00:59;5.93;;;4.20;;
68593;SDS011;55563;52.416;13.548;2023-06-10T09:03:00;8.68;;;5.25;;
68593;SDS011;55563;52.416;13.548;2023-06-10T09:05:02;7.85;;;4.20;;
68593;SDS011;55563;52.416;13.548;2023-06-10T09:07:03;5.78;;;4.28;;
68593;SDS011;55563;52.416;13.548;2023-06-10T09:09:05;6.30;;;4.20;;
68593;SDS011;55563;52.416;13.548;2023-06-10T09:11:07;7.18;;;5.72;;
68593;SDS011;55563;52.416;13.548;2023-06-10T09:13:08;7.35;;;4.40;;
68593;SDS011;55563;52.416;13.548;2023-06-10T09:17:10;5.00;;;3.47;;
68593;SDS011;55563;52.416;13.548;2023-06-10T09:19:11;5.95;;;4.45;;
68593;SDS011;55563;52.416;13.548;2023-06-10T09:21:14;6.47;;;4.20;;
68593;SDS011;55563;52.416;13.548;2023-06-10T09:23:15;7.25;;;4.18;;
68593;SDS011;55563;52.416;13.548;2023-06-10T09:25:16;5.40;;;4.13;;
68593;SDS011;55563;52.416;13.548;2023-06-10T09:27:19;6.25;;;4.38;;
68593;SDS011;55563;52.416;13.548;2023-06-10T09:29:19;7.63;;;4.22;;
68593;SDS011;55563;52.416;13.548;2023-06-10T09:33:23;5.38;;;3.97;;
68593;SDS011;55563;52.416;13.548;2023-06-10T09:35:28;6.25;;;4.70;;
68593;SDS011;55563;52.416;13.548;2023-06-10T09:37:30;6.22;;;4.57;;
68593;SDS011;55563;52.416;13.548;2023-06-10T09:39:30;5.70;;;3.97;;
68593;SDS011;55563;52.416;13.548;2023-06-10T09:41:31;4.90;;;4.10;;
68593;SDS011;55563;52.416;13.548;2023-06-10T09:43:41;4.78;;;3.83;;
68593;SDS011;55563;52.416;13.548;2023-06-10T09:45:44;4.97;;;4.10;;
68593;SDS011;55563;52.416;13.548;2023-06-10T09:47:51;5.10;;;4.13;;
68593;SDS011;55563;52.416;13.548;2023-06-10T09:49:54;4.72;;;4.00;;
68593;SDS011;55563;52.416;13.548;2023-06-10T09:51:55;4.25;;;3.25;;
68593;SDS011;55563;52.416;13.548;2023-06-10T09:55:56;5.03;;;4.22;;
68593;SDS011;55563;52.416;13.548;2023-06-10T09:57:58;5.05;;;3.97;;
68593;SDS011;55563;52.416;13.548;2023-06-10T09:59:59;6.15;;;4.18;;
68593;SDS011;55563;52.416;13.548;2023-06-10T10:02:24;4.47;;;3.67;;
68593;SDS011;55563;52.416;13.548;2023-06-10T10:04:25;4.90;;;3.28;;
68593;SDS011;55563;52.416;13.548;2023-06-10T10:06:26;4.13;;;3.53;;
68593;SDS011;55563;52.416;13.548;2023-06-10T10:08:27;5.95;;;4.18;;
68593;SDS011;55563;52.416;13.548;2023-06-10T10:10:28;8.75;;;5.32;;
68593;SDS011;55563;52.416;13.548;2023-06-10T10:12:29;5.72;;;4.20;;
68593;SDS011;55563;52.416;13.548;2023-06-10T10:14:30;4.90;;;4.35;;
68593;SDS011;55563;52.416;13.548;2023-06-10T10:16:34;6.03;;;3.88;;
68593;SDS011;55563;52.416;13.548;2023-06-10T10:18:39;5.82;;;3.65;;
68593;SDS011;55563;52.416;13.548;2023-06-10T10:20:46;5.38;;;3.63;;
68593;SDS011;55563;52.416;13.548;2023-06-10T10:22:50;4.85;;;3.83;;
68593;SDS011;55563;52.416;13.548;2023-06-10T10:24:55;6.22;;;3.90;;
68593;SDS011;55563;52.416;13.548;2023-06-10T10:26:58;6.43;;;3.50;;
68593;SDS011;55563;52.416;13.548;2023-06-10T10:29:20;5.30;;;3.55;;
68593;SDS011;55563;52.416;13.548;2023-06-10T10:31:24;5.28;;;4.05;;
68593;SDS011;55563;52.416;13.548;2023-06-10T10:33:31;4.65;;;3.60;;
68593;SDS011;55563;52.416;13.548;2023-06-10T10:35:37;4.63;;;4.22;;
68593;SDS011;55563;52.416;13.548;2023-06-10T10:37:39;9.70;;;5.25;;
68593;SDS011;55563;52.416;13.548;2023-06-10T10:39:41;6.30;;;3.80;;
68593;SDS011;55563;52.416;13.548;2023-06-10T10:41:42;5.45;;;3.85;;
68593;SDS011;55563;52.416;13.548;2023-06-10T10:43:44;4.55;;;3.60;;
68593;SDS011;55563;52.416;13.548;2023-06-10T10:45:46;3.83;;;3.30;;
68593;SDS011;55563;52.416;13.548;2023-06-10T10:47:59;4.07;;;3.30;;
68593;SDS011;55563;52.416;13.548;2023-06-10T10:50:17;3.75;;;3.40;;
68593;SDS011;55563;52.416;13.548;2023-06-10T10:52:19;4.38;;;3.55;;
68593;SDS011;55563;52.416;13.548;2023-06-10T10:54:20;3.67;;;3.38;;
68593;SDS011;55563;52.416;13.548;2023-06-10T10:56:29;3.92;;;3.17;;
68593;SDS011;55563;52.416;13.548;2023-06-10T10:58:30;8.52;;;3.35;;
68593;SDS011;55563;52.416;13.548;2023-06-10T11:00:34;3.60;;;2.90;;
68593;SDS011;55563;52.416;13.548;2023-06-10T11:02:37;4.75;;;3.25;;
68593;SDS011;55563;52.416;13.548;2023-06-10T11:04:45;4.85;;;3.42;;
68593;SDS011;55563;52.416;13.548;2023-06-10T11:06:52;3.20;;;2.75;;
68593;SDS011;55563;52.416;13.548;2023-06-10T11:08:53;3.88;;;2.97;;
68593;SDS011;55563;52.416;13.548;2023-06-10T11:10:54;4.32;;;3.92;;
68593;SDS011;55563;52.416;13.548;2023-06-10T11:12:55;4.25;;;3.13;;
68593;SDS011;55563;52.416;13.548;2023-06-10T11:14:56;4.00;;;3.28;;
68593;SDS011;55563;52.416;13.548;2023-06-10T11:17:00;4.18;;;3.22;;
68593;SDS011;55563;52.416;13.548;2023-06-10T11:19:01;3.90;;;2.80;;
68593;SDS011;55563;52.416;13.548;2023-06-10T11:21:02;5.70;;;3.60;;
68593;SDS011;55563;52.416;13.548;2023-06-10T11:23:05;4.55;;;3.40;;
68593;SDS011;55563;52.416;13.548;2023-06-10T11:25:12;4.53;;;3.13;;
68593;SDS011;55563;52.416;13.548;2023-06-10T11:27:18;4.07;;;3.05;;
68593;SDS011;55563;52.416;13.548;2023-06-10T11:29:24;4.55;;;3.25;;
68593;SDS011;55563;52.416;13.548;2023-06-10T11:31:25;3.97;;;2.90;;
68593;SDS011;55563;52.416;13.548;2023-06-10T11:33:38;3.95;;;3.50;;
68593;SDS011;55563;52.416;13.548;2023-06-10T11:35:39;4.47;;;3.20;;
68593;SDS011;55563;52.416;13.548;2023-06-10T11:37:41;3.45;;;3.13;;
68593;SDS011;55563;52.416;13.548;2023-06-10T11:39:41;4.70;;;3.15;;
68593;SDS011;55563;52.416;13.548;2023-06-10T11:41:43;4.55;;;3.38;;
68593;SDS011;55563;52.416;13.548;2023-06-10T11:43:45;3.35;;;2.78;;
68593;SDS011;55563;52.416;13.548;2023-06-10T11:45:47;4.40;;;3.42;;
68593;SDS011;55563;52.416;13.548;2023-06-10T11:47:55;4.15;;;3.00;;
68593;SDS011;55563;52.416;13.548;2023-06-10T11:49:56;3.22;;;2.92;;
68593;SDS011;55563;52.416;13.548;2023-06-10T11:51:57;3.30;;;2.80;;
68593;SDS011;55563;52.416;13.548;2023-06-10T11:53:58;3.30;;;3.00;;
68593;SDS011;55563;52.416;13.548;2023-06-10T11:55:59;3.40;;;3.03;;
68593;SDS011;55563;52.416;13.548;2023-06-10T11:58:00;4.90;;;3.20;;
68593;SDS011;55563;52.416;13.548;2023-06-10T12:00:04;4.15;;;3.03;;
68593;SDS011;55563;52.416;13.548;2023-06-10T12:02:16;3.22;;;2.92;;
68593;SDS011;55563;52.416;13.548;2023-06-10T12:04:17;3.83;;;2.83;;
68593;SDS011;55563;52.416;13.548;2023-06-10T12:06:20;4.32;;;2.85;;
68593;SDS011;55563;52.416;13.548;2023-06-10T12:08:20;3.78;;;3.40;;
68593;SDS011;55563;52.416;13.548;2023-06-10T12:10:21;3.92;;;2.95;;
68593;SDS011;55563;52.416;13.548;2023-06-10T12:12:22;4.30;;;3.13;;
68593;SDS011;55563;52.416;13.548;2023-06-10T12:14:55;3.65;;;2.92;;
68593;SDS011;55563;52.416;13.548;2023-06-10T12:17:04;3.95;;;3.38;;
68593;SDS011;55563;52.416;13.548;2023-06-10T12:19:05;4.25;;;3.47;;
68593;SDS011;55563;52.416;13.548;2023-06-10T12:21:23;3.63;;;3.25;;
68593;SDS011;55563;52.416;13.548;2023-06-10T12:23:24;5.03;;;4.10;;
68593;SDS011;55563;52.416;13.548;2023-06-10T12:25:26;3.75;;;3.33;;
68593;SDS011;55563;52.416;13.548;2023-06-10T12:27:29;3.95;;;2.92;;
68593;SDS011;55563;52.416;13.548;2023-06-10T12:29:31;4.28;;;3.47;;
68593;SDS011;55563;52.416;13.548;2023-06-10T12:31:32;5.45;;;4.03;;
68593;SDS011;55563;52.416;13.548;2023-06-10T12:33:33;4.13;;;3.72;;
68593;SDS011;55563;52.416;13.548;2023-06-10T12:35:33;4.57;;;3.80;;
68593;SDS011;55563;52.416;13.548;2023-06-10T12:37:34;4.65;;;3.25;;
68593;SDS011;55563;52.416;13.548;2023-06-10T12:39:35;3.75;;;3.17;;
68593;SDS011;55563;52.416;13.548;2023-06-10T12:41:36;5.50;;;3.53;;
68593;SDS011;55563;52.416;13.548;2023-06-10T12:43:37;4.55;;;4.13;;
68593;SDS011;55563;52.416;13.548;2023-06-10T12:45:40;4.63;;;3.30;;
68593;SDS011;55563;52.416;13.548;2023-06-10T12:47:44;4.78;;;3.65;;
68593;SDS011;55563;52.416;13.548;2023-06-10T12:49:45;5.18;;;3.97;;
68593;SDS011;55563;52.416;13.548;2023-06-10T12:51:46;4.88;;;3.53;;
68593;SDS011;55563;52.416;13.548;2023-06-10T12:53:47;4.90;;;3.65;;
68593;SDS011;55563;52.416;13.548;2023-06-10T12:55:49;4.28;;;3.83;;
68593;SDS011;55563;52.416;13.548;2023-06-10T12:57:51;5.32;;;3.33;;
68593;SDS011;55563;52.416;13.548;2023-06-10T12:59:52;4.75;;;4.22;;
68593;SDS011;55563;52.416;13.548;2023-06-10T13:01:53;6.75;;;3.58;;